sensor_id;sensor_type;location;lat;lon;timestamp;P1;durP1;ratioP1;P2;durP2;ratioP2
27985;SDS011;15453;53.692;10.168;2023-07-31T00:01:18;3.95;;;1.20;;
27985;SDS011;15453;53.692;10.168;2023-07-31T00:03:43;4.18;;;1.70;;
27985;SDS011;15453;53.692;10.168;2023-07-31T00:06:08;3.58;;;1.60;;
27985;SDS011;15453;53.692;10.168;2023-07-31T00:08:34;6.80;;;1.75;;
27985;SDS011;15453;53.692;10.168;2023-07-31T00:10:59;5.97;;;1.80;;
27985;SDS011;15453;53.692;10.168;2023-07-31T00:13:24;7.07;;;1.95;;
27985;SDS011;15453;53.692;10.168;2023-07-31T00:15:50;2.97;;;1.10;;
27985;SDS011;15453;53.692;10.168;2023-07-31T00:18:15;3.47;;;1.20;;
27985;SDS011;15453;53.692;10.168;2023-07-31T00:20:41;2.83;;;1.27;;
27985;SDS011;15453;53.692;10.168;2023-07-31T00:23:06;7.38;;;1.48;;
27985;SDS011;15453;53.692;10.168;2023-07-31T00:25:31;3.65;;;1.33;;
27985;SDS011;15453;53.692;10.168;2023-07-31T00:27:56;4.20;;;1.23;;
27985;SDS011;15453;53.692;10.168;2023-07-31T00:30:22;4.22;;;1.35;;
27985;SDS011;15453;53.692;10.168;2023-07-31T00:32:47;5.13;;;1.13;;
27985;SDS011;15453;53.692;10.168;2023-07-31T00:35:12;4.18;;;1.40;;
27985;SDS011;15453;53.692;10.168;2023-07-31T00:37:38;5.18;;;1.40;;
27985;SDS011;15453;53.692;10.168;2023-07-31T00:40:03;4.10;;;1.80;;
27985;SDS011;15453;53.692;10.168;2023-07-31T00:42:29;3.50;;;1.33;;
27985;SDS011;15453;53.692;10.168;2023-07-31T00:44:54;4.00;;;1.27;;
27985;SDS011;15453;53.692;10.168;2023-07-31T00:47:19;4.70;;;1.80;;
27985;SDS011;15453;53.692;10.168;2023-07-31T00:49:45;8.10;;;2.42;;
27985;SDS011;15453;53.692;10.168;2023-07-31T00:52:10;5.68;;;2.63;;
27985;SDS011;15453;53.692;10.168;2023-07-31T00:54:36;6.22;;;2.00;;
27985;SDS011;15453;53.692;10.168;2023-07-31T00:57:01;4.88;;;2.10;;
27985;SDS011;15453;53.692;10.168;2023-07-31T00:59:27;5.50;;;2.20;;
27985;SDS011;15453;53.692;10.168;2023-07-31T01:01:52;5.25;;;1.50;;
27985;SDS011;15453;53.692;10.168;2023-07-31T01:04:18;4.15;;;1.80;;
27985;SDS011;15453;53.692;10.168;2023-07-31T01:06:56;3.10;;;1.30;;
27985;SDS011;15453;53.692;10.168;2023-07-31T01:09:40;4.60;;;1.40;;
27985;SDS011;15453;53.692;10.168;2023-07-31T01:12:11;7.88;;;1.58;;
27985;SDS011;15453;53.692;10.168;2023-07-31T01:14:39;6.63;;;1.52;;
27985;SDS011;15453;53.692;10.168;2023-07-31T01:17:04;4.60;;;1.40;;
27985;SDS011;15453;53.692;10.168;2023-07-31T01:19:30;7.50;;;1.60;;
27985;SDS011;15453;53.692;10.168;2023-07-31T01:25:17;3.67;;;1.50;;
27985;SDS011;15453;53.692;10.168;2023-07-31T01:28:04;4.80;;;1.65;;
27985;SDS011;15453;53.692;10.168;2023-07-31T01:30:36;3.50;;;1.42;;
27985;SDS011;15453;53.692;10.168;2023-07-31T01:33:06;5.20;;;1.63;;
27985;SDS011;15453;53.692;10.168;2023-07-31T01:35:36;4.40;;;1.70;;
27985;SDS011;15453;53.692;10.168;2023-07-31T01:38:02;3.80;;;1.40;;
27985;SDS011;15453;53.692;10.168;2023-07-31T01:40:29;3.72;;;1.63;;
27985;SDS011;15453;53.692;10.168;2023-07-31T01:42:54;6.60;;;1.48;;
27985;SDS011;15453;53.692;10.168;2023-07-31T01:45:20;4.18;;;1.23;;
27985;SDS011;15453;53.692;10.168;2023-07-31T01:47:45;2.67;;;1.48;;
27985;SDS011;15453;53.692;10.168;2023-07-31T01:50:10;3.38;;;1.27;;
27985;SDS011;15453;53.692;10.168;2023-07-31T01:52:35;8.35;;;1.98;;
27985;SDS011;15453;53.692;10.168;2023-07-31T01:55:01;3.10;;;1.10;;
27985;SDS011;15453;53.692;10.168;2023-07-31T01:57:26;4.25;;;1.45;;
27985;SDS011;15453;53.692;10.168;2023-07-31T01:59:51;5.28;;;1.60;;
27985;SDS011;15453;53.692;10.168;2023-07-31T02:02:18;4.72;;;1.42;;
27985;SDS011;15453;53.692;10.168;2023-07-31T02:04:43;5.22;;;1.50;;
27985;SDS011;15453;53.692;10.168;2023-07-31T02:07:08;2.90;;;1.35;;
27985;SDS011;15453;53.692;10.168;2023-07-31T02:09:34;4.95;;;1.60;;
27985;SDS011;15453;53.692;10.168;2023-07-31T02:11:59;4.05;;;1.80;;
27985;SDS011;15453;53.692;10.168;2023-07-31T02:14:24;2.85;;;1.20;;
27985;SDS011;15453;53.692;10.168;2023-07-31T02:16:50;4.30;;;1.60;;
27985;SDS011;15453;53.692;10.168;2023-07-31T02:19:15;3.60;;;1.63;;
27985;SDS011;15453;53.692;10.168;2023-07-31T02:21:40;8.60;;;1.63;;
27985;SDS011;15453;53.692;10.168;2023-07-31T02:24:05;5.55;;;1.63;;
27985;SDS011;15453;53.692;10.168;2023-07-31T02:26:31;3.45;;;1.65;;
27985;SDS011;15453;53.692;10.168;2023-07-31T02:28:56;4.70;;;1.65;;
27985;SDS011;15453;53.692;10.168;2023-07-31T02:31:21;4.00;;;1.48;;
27985;SDS011;15453;53.692;10.168;2023-07-31T02:33:46;4.72;;;1.70;;
27985;SDS011;15453;53.692;10.168;2023-07-31T02:36:12;6.32;;;2.25;;
27985;SDS011;15453;53.692;10.168;2023-07-31T02:38:37;10.52;;;1.70;;
27985;SDS011;15453;53.692;10.168;2023-07-31T02:41:02;6.38;;;2.00;;
27985;SDS011;15453;53.692;10.168;2023-07-31T02:43:27;4.93;;;2.03;;
27985;SDS011;15453;53.692;10.168;2023-07-31T02:45:53;3.30;;;1.65;;
27985;SDS011;15453;53.692;10.168;2023-07-31T02:48:18;4.75;;;1.45;;
27985;SDS011;15453;53.692;10.168;2023-07-31T02:50:44;6.10;;;2.28;;
27985;SDS011;15453;53.692;10.168;2023-07-31T02:53:09;6.57;;;1.90;;
27985;SDS011;15453;53.692;10.168;2023-07-31T02:55:35;4.57;;;1.60;;
27985;SDS011;15453;53.692;10.168;2023-07-31T02:58:00;4.85;;;2.00;;
27985;SDS011;15453;53.692;10.168;2023-07-31T03:00:25;5.95;;;1.90;;
27985;SDS011;15453;53.692;10.168;2023-07-31T03:02:50;4.97;;;1.85;;
27985;SDS011;15453;53.692;10.168;2023-07-31T03:05:16;5.32;;;1.55;;
27985;SDS011;15453;53.692;10.168;2023-07-31T03:07:41;7.82;;;2.30;;
27985;SDS011;15453;53.692;10.168;2023-07-31T03:10:06;4.38;;;1.88;;
27985;SDS011;15453;53.692;10.168;2023-07-31T03:12:32;5.78;;;1.73;;
27985;SDS011;15453;53.692;10.168;2023-07-31T03:14:57;8.07;;;2.10;;
27985;SDS011;15453;53.692;10.168;2023-07-31T03:17:23;3.65;;;1.90;;
27985;SDS011;15453;53.692;10.168;2023-07-31T03:19:48;6.13;;;2.28;;
27985;SDS011;15453;53.692;10.168;2023-07-31T03:22:13;7.15;;;2.10;;
27985;SDS011;15453;53.692;10.168;2023-07-31T03:24:39;6.80;;;2.08;;
27985;SDS011;15453;53.692;10.168;2023-07-31T03:27:04;5.28;;;2.35;;
27985;SDS011;15453;53.692;10.168;2023-07-31T03:29:30;3.40;;;1.70;;
27985;SDS011;15453;53.692;10.168;2023-07-31T03:31:55;3.60;;;1.60;;
27985;SDS011;15453;53.692;10.168;2023-07-31T03:34:21;7.75;;;1.95;;
27985;SDS011;15453;53.692;10.168;2023-07-31T03:36:46;2.88;;;1.73;;
27985;SDS011;15453;53.692;10.168;2023-07-31T03:39:11;3.95;;;1.90;;
27985;SDS011;15453;53.692;10.168;2023-07-31T03:41:37;3.08;;;1.70;;
27985;SDS011;15453;53.692;10.168;2023-07-31T03:44:02;6.10;;;1.92;;
27985;SDS011;15453;53.692;10.168;2023-07-31T03:46:28;3.60;;;1.73;;
27985;SDS011;15453;53.692;10.168;2023-07-31T03:48:53;4.18;;;1.70;;
27985;SDS011;15453;53.692;10.168;2023-07-31T03:51:18;5.07;;;2.03;;
27985;SDS011;15453;53.692;10.168;2023-07-31T03:53:43;5.32;;;2.08;;
27985;SDS011;15453;53.692;10.168;2023-07-31T03:56:09;5.03;;;1.95;;
27985;SDS011;15453;53.692;10.168;2023-07-31T03:58:34;5.07;;;1.80;;
27985;SDS011;15453;53.692;10.168;2023-07-31T04:01:00;6.80;;;2.15;;
27985;SDS011;15453;53.692;10.168;2023-07-31T04:03:26;6.40;;;1.85;;
27985;SDS011;15453;53.692;10.168;2023-07-31T04:05:53;6.28;;;1.95;;
27985;SDS011;15453;53.692;10.168;2023-07-31T04:08:20;4.82;;;1.70;;
27985;SDS011;15453;53.692;10.168;2023-07-31T04:10:45;5.90;;;1.70;;
27985;SDS011;15453;53.692;10.168;2023-07-31T04:13:10;6.47;;;1.80;;
27985;SDS011;15453;53.692;10.168;2023-07-31T04:15:35;5.43;;;2.20;;
27985;SDS011;15453;53.692;10.168;2023-07-31T04:18:00;4.40;;;2.00;;
27985;SDS011;15453;53.692;10.168;2023-07-31T04:20:26;3.60;;;2.00;;
27985;SDS011;15453;53.692;10.168;2023-07-31T04:22:51;2.85;;;2.10;;
27985;SDS011;15453;53.692;10.168;2023-07-31T04:25:16;3.67;;;1.92;;
27985;SDS011;15453;53.692;10.168;2023-07-31T04:27:42;2.60;;;1.52;;
27985;SDS011;15453;53.692;10.168;2023-07-31T04:30:07;4.35;;;2.25;;
27985;SDS011;15453;53.692;10.168;2023-07-31T04:32:32;8.00;;;2.30;;
27985;SDS011;15453;53.692;10.168;2023-07-31T04:34:58;4.93;;;2.00;;
27985;SDS011;15453;53.692;10.168;2023-07-31T04:37:23;4.70;;;1.75;;
27985;SDS011;15453;53.692;10.168;2023-07-31T04:39:49;3.88;;;1.88;;
27985;SDS011;15453;53.692;10.168;2023-07-31T04:42:14;2.97;;;1.75;;
27985;SDS011;15453;53.692;10.168;2023-07-31T04:44:39;3.42;;;1.70;;
27985;SDS011;15453;53.692;10.168;2023-07-31T04:47:05;4.40;;;1.70;;
27985;SDS011;15453;53.692;10.168;2023-07-31T04:49:31;3.17;;;1.67;;
27985;SDS011;15453;53.692;10.168;2023-07-31T04:51:57;3.03;;;1.85;;
27985;SDS011;15453;53.692;10.168;2023-07-31T04:54:22;3.80;;;1.77;;
27985;SDS011;15453;53.692;10.168;2023-07-31T04:56:47;3.72;;;1.90;;
27985;SDS011;15453;53.692;10.168;2023-07-31T04:59:12;3.28;;;1.50;;
27985;SDS011;15453;53.692;10.168;2023-07-31T05:01:38;5.13;;;1.48;;
27985;SDS011;15453;53.692;10.168;2023-07-31T05:04:04;2.63;;;1.80;;
27985;SDS011;15453;53.692;10.168;2023-07-31T05:06:29;4.43;;;1.35;;
27985;SDS011;15453;53.692;10.168;2023-07-31T05:08:55;2.83;;;1.60;;
27985;SDS011;15453;53.692;10.168;2023-07-31T05:11:20;3.33;;;1.80;;
27985;SDS011;15453;53.692;10.168;2023-07-31T05:13:45;2.28;;;1.40;;
27985;SDS011;15453;53.692;10.168;2023-07-31T05:16:11;3.28;;;1.63;;
27985;SDS011;15453;53.692;10.168;2023-07-31T05:18:37;2.05;;;1.40;;
27985;SDS011;15453;53.692;10.168;2023-07-31T05:21:02;6.05;;;1.67;;
27985;SDS011;15453;53.692;10.168;2023-07-31T05:23:28;1.75;;;1.25;;
27985;SDS011;15453;53.692;10.168;2023-07-31T05:25:53;2.45;;;1.42;;
27985;SDS011;15453;53.692;10.168;2023-07-31T05:28:18;4.07;;;1.60;;
27985;SDS011;15453;53.692;10.168;2023-07-31T05:30:46;2.47;;;1.30;;
27985;SDS011;15453;53.692;10.168;2023-07-31T05:33:11;2.17;;;1.15;;
27985;SDS011;15453;53.692;10.168;2023-07-31T05:35:37;2.03;;;1.30;;
27985;SDS011;15453;53.692;10.168;2023-07-31T05:38:04;3.53;;;1.40;;
27985;SDS011;15453;53.692;10.168;2023-07-31T05:40:31;1.23;;;1.00;;
27985;SDS011;15453;53.692;10.168;2023-07-31T05:42:57;3.15;;;1.38;;
27985;SDS011;15453;53.692;10.168;2023-07-31T05:45:22;1.63;;;1.10;;
27985;SDS011;15453;53.692;10.168;2023-07-31T05:47:48;2.33;;;1.45;;
27985;SDS011;15453;53.692;10.168;2023-07-31T05:50:13;2.08;;;1.00;;
27985;SDS011;15453;53.692;10.168;2023-07-31T05:52:39;2.10;;;1.13;;
27985;SDS011;15453;53.692;10.168;2023-07-31T05:55:04;3.90;;;1.17;;
27985;SDS011;15453;53.692;10.168;2023-07-31T05:57:30;3.13;;;1.00;;
27985;SDS011;15453;53.692;10.168;2023-07-31T05:59:55;2.33;;;1.45;;
27985;SDS011;15453;53.692;10.168;2023-07-31T06:02:20;3.97;;;1.27;;
27985;SDS011;15453;53.692;10.168;2023-07-31T06:04:45;2.13;;;1.38;;
27985;SDS011;15453;53.692;10.168;2023-07-31T06:07:11;2.67;;;0.93;;
27985;SDS011;15453;53.692;10.168;2023-07-31T06:09:36;2.30;;;1.23;;
27985;SDS011;15453;53.692;10.168;2023-07-31T06:12:02;1.48;;;1.30;;
27985;SDS011;15453;53.692;10.168;2023-07-31T06:14:27;5.07;;;1.50;;
27985;SDS011;15453;53.692;10.168;2023-07-31T06:16:52;12.38;;;2.95;;
27985;SDS011;15453;53.692;10.168;2023-07-31T06:19:17;22.55;;;3.95;;
27985;SDS011;15453;53.692;10.168;2023-07-31T06:21:43;27.63;;;3.05;;
27985;SDS011;15453;53.692;10.168;2023-07-31T06:24:10;8.63;;;1.92;;
27985;SDS011;15453;53.692;10.168;2023-07-31T06:26:37;21.25;;;3.08;;
27985;SDS011;15453;53.692;10.168;2023-07-31T06:29:02;6.72;;;1.45;;
27985;SDS011;15453;53.692;10.168;2023-07-31T06:31:27;8.07;;;1.67;;
27985;SDS011;15453;53.692;10.168;2023-07-31T06:33:53;3.85;;;1.30;;
27985;SDS011;15453;53.692;10.168;2023-07-31T06:36:18;3.08;;;1.20;;
27985;SDS011;15453;53.692;10.168;2023-07-31T06:38:44;1.33;;;1.00;;
27985;SDS011;15453;53.692;10.168;2023-07-31T06:41:09;1.30;;;0.93;;
27985;SDS011;15453;53.692;10.168;2023-07-31T06:43:35;1.55;;;0.90;;
27985;SDS011;15453;53.692;10.168;2023-07-31T06:46:04;1.70;;;1.10;;
27985;SDS011;15453;53.692;10.168;2023-07-31T06:48:33;2.95;;;1.00;;
27985;SDS011;15453;53.692;10.168;2023-07-31T06:50:59;1.52;;;0.98;;
27985;SDS011;15453;53.692;10.168;2023-07-31T06:53:24;1.52;;;0.90;;
27985;SDS011;15453;53.692;10.168;2023-07-31T06:55:49;5.25;;;1.27;;
27985;SDS011;15453;53.692;10.168;2023-07-31T06:58:16;1.17;;;0.88;;
27985;SDS011;15453;53.692;10.168;2023-07-31T07:00:42;1.73;;;1.30;;
27985;SDS011;15453;53.692;10.168;2023-07-31T07:03:07;1.40;;;1.30;;
27985;SDS011;15453;53.692;10.168;2023-07-31T07:05:33;1.77;;;0.90;;
27985;SDS011;15453;53.692;10.168;2023-07-31T07:07:58;1.25;;;1.00;;
27985;SDS011;15453;53.692;10.168;2023-07-31T07:10:23;2.00;;;1.10;;
27985;SDS011;15453;53.692;10.168;2023-07-31T07:12:48;1.33;;;1.15;;
27985;SDS011;15453;53.692;10.168;2023-07-31T07:15:14;1.42;;;0.98;;
27985;SDS011;15453;53.692;10.168;2023-07-31T07:17:39;1.08;;;0.80;;
27985;SDS011;15453;53.692;10.168;2023-07-31T07:20:05;1.48;;;1.10;;
27985;SDS011;15453;53.692;10.168;2023-07-31T07:22:31;1.33;;;1.10;;
27985;SDS011;15453;53.692;10.168;2023-07-31T07:24:56;1.33;;;1.10;;
27985;SDS011;15453;53.692;10.168;2023-07-31T07:27:21;0.85;;;0.85;;
27985;SDS011;15453;53.692;10.168;2023-07-31T07:29:46;2.72;;;0.80;;
27985;SDS011;15453;53.692;10.168;2023-07-31T07:32:12;1.23;;;1.02;;
27985;SDS011;15453;53.692;10.168;2023-07-31T07:34:37;1.50;;;1.00;;
27985;SDS011;15453;53.692;10.168;2023-07-31T07:37:03;2.85;;;0.90;;
27985;SDS011;15453;53.692;10.168;2023-07-31T07:39:28;3.67;;;1.35;;
27985;SDS011;15453;53.692;10.168;2023-07-31T07:41:53;1.58;;;1.20;;
27985;SDS011;15453;53.692;10.168;2023-07-31T07:44:19;1.45;;;0.85;;
27985;SDS011;15453;53.692;10.168;2023-07-31T07:46:44;1.58;;;0.95;;
27985;SDS011;15453;53.692;10.168;2023-07-31T07:49:09;2.40;;;1.00;;
27985;SDS011;15453;53.692;10.168;2023-07-31T07:51:35;3.03;;;1.52;;
27985;SDS011;15453;53.692;10.168;2023-07-31T07:54:00;2.92;;;1.25;;
27985;SDS011;15453;53.692;10.168;2023-07-31T07:56:26;1.45;;;1.15;;
27985;SDS011;15453;53.692;10.168;2023-07-31T07:58:52;1.67;;;1.10;;
27985;SDS011;15453;53.692;10.168;2023-07-31T08:01:17;1.20;;;1.10;;
27985;SDS011;15453;53.692;10.168;2023-07-31T08:03:43;3.53;;;1.00;;
27985;SDS011;15453;53.692;10.168;2023-07-31T08:06:08;2.25;;;0.95;;
27985;SDS011;15453;53.692;10.168;2023-07-31T08:08:34;1.10;;;0.88;;
27985;SDS011;15453;53.692;10.168;2023-07-31T08:11:03;1.70;;;1.17;;
27985;SDS011;15453;53.692;10.168;2023-07-31T08:13:28;1.48;;;1.00;;
27985;SDS011;15453;53.692;10.168;2023-07-31T08:15:54;1.20;;;0.80;;
27985;SDS011;15453;53.692;10.168;2023-07-31T08:18:20;2.63;;;2.00;;
27985;SDS011;15453;53.692;10.168;2023-07-31T08:20:45;2.33;;;1.70;;
27985;SDS011;15453;53.692;10.168;2023-07-31T08:23:10;2.10;;;0.90;;
27985;SDS011;15453;53.692;10.168;2023-07-31T08:25:36;7.15;;;4.60;;
27985;SDS011;15453;53.692;10.168;2023-07-31T08:28:02;3.25;;;2.22;;
27985;SDS011;15453;53.692;10.168;2023-07-31T08:30:28;2.20;;;1.50;;
27985;SDS011;15453;53.692;10.168;2023-07-31T08:32:53;1.70;;;1.27;;
27985;SDS011;15453;53.692;10.168;2023-07-31T08:35:18;1.30;;;1.10;;
27985;SDS011;15453;53.692;10.168;2023-07-31T08:37:44;2.55;;;1.42;;
27985;SDS011;15453;53.692;10.168;2023-07-31T08:40:09;3.15;;;1.35;;
27985;SDS011;15453;53.692;10.168;2023-07-31T08:42:42;1.42;;;1.00;;
27985;SDS011;15453;53.692;10.168;2023-07-31T08:45:15;1.40;;;1.00;;
27985;SDS011;15453;53.692;10.168;2023-07-31T08:47:44;1.52;;;1.00;;
27985;SDS011;15453;53.692;10.168;2023-07-31T08:50:11;1.00;;;0.80;;
27985;SDS011;15453;53.692;10.168;2023-07-31T08:52:37;1.70;;;1.15;;
27985;SDS011;15453;53.692;10.168;2023-07-31T08:55:03;3.00;;;1.00;;
27985;SDS011;15453;53.692;10.168;2023-07-31T08:57:29;1.75;;;0.98;;
27985;SDS011;15453;53.692;10.168;2023-07-31T08:59:55;1.45;;;1.00;;
27985;SDS011;15453;53.692;10.168;2023-07-31T09:02:22;1.83;;;1.23;;
27985;SDS011;15453;53.692;10.168;2023-07-31T09:04:49;3.42;;;1.20;;
27985;SDS011;15453;53.692;10.168;2023-07-31T09:07:14;2.33;;;1.83;;
27985;SDS011;15453;53.692;10.168;2023-07-31T09:09:40;1.80;;;1.48;;
27985;SDS011;15453;53.692;10.168;2023-07-31T09:12:06;1.40;;;1.17;;
27985;SDS011;15453;53.692;10.168;2023-07-31T09:14:31;2.60;;;1.42;;
27985;SDS011;15453;53.692;10.168;2023-07-31T09:16:57;1.40;;;1.20;;
27985;SDS011;15453;53.692;10.168;2023-07-31T09:19:34;1.70;;;1.00;;
27985;SDS011;15453;53.692;10.168;2023-07-31T09:22:02;1.48;;;1.00;;
27985;SDS011;15453;53.692;10.168;2023-07-31T09:24:28;2.00;;;1.10;;
27985;SDS011;15453;53.692;10.168;2023-07-31T09:26:55;1.75;;;1.00;;
27985;SDS011;15453;53.692;10.168;2023-07-31T09:29:22;1.08;;;0.98;;
27985;SDS011;15453;53.692;10.168;2023-07-31T09:31:47;1.98;;;1.08;;
27985;SDS011;15453;53.692;10.168;2023-07-31T09:34:13;2.35;;;1.00;;
27985;SDS011;15453;53.692;10.168;2023-07-31T09:36:46;1.42;;;0.90;;
27985;SDS011;15453;53.692;10.168;2023-07-31T09:39:12;1.35;;;0.80;;
27985;SDS011;15453;53.692;10.168;2023-07-31T09:41:39;1.73;;;1.00;;
27985;SDS011;15453;53.692;10.168;2023-07-31T09:44:06;1.98;;;1.45;;
27985;SDS011;15453;53.692;10.168;2023-07-31T09:46:32;2.42;;;0.98;;
27985;SDS011;15453;53.692;10.168;2023-07-31T09:49:03;1.65;;;1.30;;
27985;SDS011;15453;53.692;10.168;2023-07-31T09:51:36;2.15;;;1.00;;
27985;SDS011;15453;53.692;10.168;2023-07-31T09:54:09;1.30;;;0.95;;
27985;SDS011;15453;53.692;10.168;2023-07-31T09:56:37;1.77;;;1.20;;
27985;SDS011;15453;53.692;10.168;2023-07-31T09:59:06;1.83;;;1.00;;
27985;SDS011;15453;53.692;10.168;2023-07-31T10:01:33;1.05;;;0.85;;
27985;SDS011;15453;53.692;10.168;2023-07-31T10:03:58;1.48;;;0.85;;
27985;SDS011;15453;53.692;10.168;2023-07-31T10:06:25;1.55;;;1.10;;
27985;SDS011;15453;53.692;10.168;2023-07-31T10:08:51;2.15;;;1.27;;
27985;SDS011;15453;53.692;10.168;2023-07-31T10:11:18;1.73;;;1.00;;
27985;SDS011;15453;53.692;10.168;2023-07-31T10:13:44;7.53;;;4.82;;
27985;SDS011;15453;53.692;10.168;2023-07-31T10:16:10;3.42;;;2.08;;
27985;SDS011;15453;53.692;10.168;2023-07-31T10:18:37;1.70;;;1.30;;
27985;SDS011;15453;53.692;10.168;2023-07-31T10:21:04;1.25;;;0.90;;
27985;SDS011;15453;53.692;10.168;2023-07-31T10:23:30;1.10;;;0.93;;
27985;SDS011;15453;53.692;10.168;2023-07-31T10:25:56;2.42;;;0.98;;
27985;SDS011;15453;53.692;10.168;2023-07-31T10:28:22;1.77;;;0.75;;
27985;SDS011;15453;53.692;10.168;2023-07-31T10:30:47;1.00;;;0.80;;
27985;SDS011;15453;53.692;10.168;2023-07-31T10:33:14;1.40;;;0.80;;
27985;SDS011;15453;53.692;10.168;2023-07-31T10:35:40;1.00;;;0.90;;
27985;SDS011;15453;53.692;10.168;2023-07-31T10:38:09;1.30;;;1.08;;
27985;SDS011;15453;53.692;10.168;2023-07-31T10:40:39;1.45;;;0.82;;
27985;SDS011;15453;53.692;10.168;2023-07-31T10:43:04;1.42;;;0.98;;
27985;SDS011;15453;53.692;10.168;2023-07-31T10:45:39;1.40;;;0.90;;
27985;SDS011;15453;53.692;10.168;2023-07-31T10:48:13;2.13;;;1.20;;
27985;SDS011;15453;53.692;10.168;2023-07-31T10:50:55;1.05;;;0.80;;
27985;SDS011;15453;53.692;10.168;2023-07-31T10:53:25;3.28;;;0.80;;
27985;SDS011;15453;53.692;10.168;2023-07-31T10:56:00;1.23;;;0.90;;
27985;SDS011;15453;53.692;10.168;2023-07-31T10:58:29;1.52;;;1.08;;
27985;SDS011;15453;53.692;10.168;2023-07-31T11:00:57;1.42;;;1.02;;
27985;SDS011;15453;53.692;10.168;2023-07-31T11:03:27;1.10;;;0.70;;
27985;SDS011;15453;53.692;10.168;2023-07-31T11:06:06;0.90;;;0.60;;
27985;SDS011;15453;53.692;10.168;2023-07-31T11:08:32;0.65;;;0.50;;
27985;SDS011;15453;53.692;10.168;2023-07-31T11:13:27;1.65;;;0.57;;
27985;SDS011;15453;53.692;10.168;2023-07-31T11:15:53;0.55;;;0.30;;
27985;SDS011;15453;53.692;10.168;2023-07-31T11:18:18;0.63;;;0.38;;
27985;SDS011;15453;53.692;10.168;2023-07-31T11:20:44;0.52;;;0.30;;
27985;SDS011;15453;53.692;10.168;2023-07-31T11:23:09;0.30;;;0.28;;
27985;SDS011;15453;53.692;10.168;2023-07-31T11:25:36;1.05;;;0.30;;
27985;SDS011;15453;53.692;10.168;2023-07-31T11:28:05;0.52;;;0.35;;
27985;SDS011;15453;53.692;10.168;2023-07-31T11:30:31;0.60;;;0.30;;
27985;SDS011;15453;53.692;10.168;2023-07-31T11:32:57;1.15;;;0.43;;
27985;SDS011;15453;53.692;10.168;2023-07-31T11:35:22;13.93;;;0.98;;
27985;SDS011;15453;53.692;10.168;2023-07-31T11:37:48;0.80;;;0.38;;
27985;SDS011;15453;53.692;10.168;2023-07-31T11:40:14;0.40;;;0.30;;
27985;SDS011;15453;53.692;10.168;2023-07-31T11:42:40;0.43;;;0.35;;
27985;SDS011;15453;53.692;10.168;2023-07-31T11:45:06;0.93;;;0.47;;
27985;SDS011;15453;53.692;10.168;2023-07-31T11:47:32;0.68;;;0.38;;
27985;SDS011;15453;53.692;10.168;2023-07-31T11:49:59;0.73;;;0.43;;
27985;SDS011;15453;53.692;10.168;2023-07-31T11:52:26;0.93;;;0.50;;
27985;SDS011;15453;53.692;10.168;2023-07-31T11:54:51;0.50;;;0.40;;
27985;SDS011;15453;53.692;10.168;2023-07-31T11:57:16;0.90;;;0.60;;
27985;SDS011;15453;53.692;10.168;2023-07-31T11:59:43;0.52;;;0.50;;
27985;SDS011;15453;53.692;10.168;2023-07-31T12:02:09;1.10;;;0.57;;
27985;SDS011;15453;53.692;10.168;2023-07-31T12:04:35;0.85;;;0.50;;
27985;SDS011;15453;53.692;10.168;2023-07-31T12:07:01;0.77;;;0.50;;
27985;SDS011;15453;53.692;10.168;2023-07-31T12:09:26;0.80;;;0.50;;
27985;SDS011;15453;53.692;10.168;2023-07-31T12:11:51;1.70;;;0.47;;
27985;SDS011;15453;53.692;10.168;2023-07-31T12:14:29;1.02;;;0.60;;
27985;SDS011;15453;53.692;10.168;2023-07-31T12:16:54;1.05;;;0.43;;
27985;SDS011;15453;53.692;10.168;2023-07-31T12:19:21;0.35;;;0.35;;
27985;SDS011;15453;53.692;10.168;2023-07-31T12:21:46;0.95;;;0.50;;
27985;SDS011;15453;53.692;10.168;2023-07-31T12:24:12;2.25;;;0.50;;
27985;SDS011;15453;53.692;10.168;2023-07-31T12:26:37;0.68;;;0.50;;
27985;SDS011;15453;53.692;10.168;2023-07-31T12:29:05;1.27;;;0.60;;
27985;SDS011;15453;53.692;10.168;2023-07-31T12:31:33;0.80;;;0.60;;
27985;SDS011;15453;53.692;10.168;2023-07-31T12:33:59;0.65;;;0.55;;
27985;SDS011;15453;53.692;10.168;2023-07-31T12:36:24;2.85;;;1.13;;
27985;SDS011;15453;53.692;10.168;2023-07-31T12:38:50;2.42;;;0.90;;
27985;SDS011;15453;53.692;10.168;2023-07-31T12:41:16;1.65;;;0.88;;
27985;SDS011;15453;53.692;10.168;2023-07-31T12:43:44;1.65;;;0.77;;
27985;SDS011;15453;53.692;10.168;2023-07-31T12:46:10;0.80;;;0.60;;
27985;SDS011;15453;53.692;10.168;2023-07-31T12:48:36;1.10;;;0.73;;
27985;SDS011;15453;53.692;10.168;2023-07-31T12:51:02;2.17;;;0.70;;
27985;SDS011;15453;53.692;10.168;2023-07-31T12:53:28;0.70;;;0.57;;
27985;SDS011;15453;53.692;10.168;2023-07-31T12:55:54;1.77;;;0.73;;
27985;SDS011;15453;53.692;10.168;2023-07-31T12:58:20;0.90;;;0.50;;
27985;SDS011;15453;53.692;10.168;2023-07-31T13:00:45;0.98;;;0.60;;
27985;SDS011;15453;53.692;10.168;2023-07-31T13:03:10;1.08;;;0.60;;
27985;SDS011;15453;53.692;10.168;2023-07-31T13:05:36;1.33;;;0.70;;
27985;SDS011;15453;53.692;10.168;2023-07-31T13:08:01;1.25;;;0.77;;
27985;SDS011;15453;53.692;10.168;2023-07-31T13:10:26;0.68;;;0.50;;
27985;SDS011;15453;53.692;10.168;2023-07-31T13:12:53;1.35;;;0.70;;
27985;SDS011;15453;53.692;10.168;2023-07-31T13:15:18;0.80;;;0.60;;
27985;SDS011;15453;53.692;10.168;2023-07-31T13:17:43;0.90;;;0.60;;
27985;SDS011;15453;53.692;10.168;2023-07-31T13:20:09;0.93;;;0.60;;
27985;SDS011;15453;53.692;10.168;2023-07-31T13:22:35;0.80;;;0.65;;
27985;SDS011;15453;53.692;10.168;2023-07-31T13:25:00;0.93;;;0.70;;
27985;SDS011;15453;53.692;10.168;2023-07-31T13:27:25;0.90;;;0.60;;
27985;SDS011;15453;53.692;10.168;2023-07-31T13:29:51;1.17;;;0.60;;
27985;SDS011;15453;53.692;10.168;2023-07-31T13:32:17;0.70;;;0.50;;
27985;SDS011;15453;53.692;10.168;2023-07-31T13:34:43;2.60;;;0.60;;
27985;SDS011;15453;53.692;10.168;2023-07-31T13:37:09;1.30;;;0.60;;
27985;SDS011;15453;53.692;10.168;2023-07-31T13:39:34;1.20;;;0.73;;
27985;SDS011;15453;53.692;10.168;2023-07-31T13:42:00;0.88;;;0.52;;
27985;SDS011;15453;53.692;10.168;2023-07-31T13:44:26;0.88;;;0.60;;
27985;SDS011;15453;53.692;10.168;2023-07-31T13:46:51;1.10;;;0.60;;
27985;SDS011;15453;53.692;10.168;2023-07-31T13:49:16;2.67;;;1.33;;
27985;SDS011;15453;53.692;10.168;2023-07-31T13:51:42;1.30;;;0.93;;
27985;SDS011;15453;53.692;10.168;2023-07-31T13:54:07;1.63;;;0.90;;
27985;SDS011;15453;53.692;10.168;2023-07-31T13:56:32;1.20;;;0.75;;
27985;SDS011;15453;53.692;10.168;2023-07-31T13:58:58;1.63;;;1.02;;
27985;SDS011;15453;53.692;10.168;2023-07-31T14:01:23;1.98;;;0.80;;
27985;SDS011;15453;53.692;10.168;2023-07-31T14:03:49;1.05;;;0.70;;
27985;SDS011;15453;53.692;10.168;2023-07-31T14:06:14;1.33;;;0.70;;
27985;SDS011;15453;53.692;10.168;2023-07-31T14:08:39;1.15;;;0.73;;
27985;SDS011;15453;53.692;10.168;2023-07-31T14:11:04;1.98;;;0.93;;
27985;SDS011;15453;53.692;10.168;2023-07-31T14:13:30;2.95;;;1.00;;
27985;SDS011;15453;53.692;10.168;2023-07-31T14:15:55;2.08;;;1.00;;
27985;SDS011;15453;53.692;10.168;2023-07-31T14:18:20;4.95;;;2.35;;
27985;SDS011;15453;53.692;10.168;2023-07-31T14:20:46;4.30;;;2.03;;
27985;SDS011;15453;53.692;10.168;2023-07-31T14:23:11;1.92;;;1.50;;
27985;SDS011;15453;53.692;10.168;2023-07-31T14:25:36;1.58;;;1.00;;
27985;SDS011;15453;53.692;10.168;2023-07-31T14:28:01;1.80;;;1.20;;
27985;SDS011;15453;53.692;10.168;2023-07-31T14:30:27;1.23;;;0.90;;
27985;SDS011;15453;53.692;10.168;2023-07-31T14:32:52;1.50;;;1.00;;